Terminal Aerodrome Forecast
Issued by NWS Jackson, KY

Home | Current Version | Previous Version | Text Only | Print | Product List | Glossary On
Versions: 1 2 3 4 5 6 7 8 9 10 11 12 13 14 15 16 17 18 19 20 21 22
000
FTUS43 KJKL 220521
TAFLOZ
TAF
KLOZ 220521Z 2206/2306 00000KT 1SM BR SCT003 BKN120
     FM220900 00000KT P6SM VCSH BKN035
     FM221200 10003KT 6SM -SHRA OVC025
     FM221400 12006KT 4SM -SHRA OVC015
     FM221800 18008KT P6SM VCTS OVC035CB=

USA.gov is the U.S. government's official web portal to all federal, state and local government web resources and services.